Time;durP1;ratioP1;P1;durP2;ratioP2;P2;SDS_P1;SDS_P2;PMS_P1;PMS_P2;Temp;Humidity;BMP_temperature;BMP_pressure;BME280_temperature;BME280_humidity;BME280_pressure;Samples;Min_cycle;Max_cycle;Signal;HPM_P1;HPM_P2
2023/08/28 00:01:04;;;;;;;;;;;;;;;;;;4968402;28;19987;-76
2023/08/28 00:03:32;;;;;;;;;;;;;;;;;;4969487;28;19955;-76
2023/08/28 00:05:57;;;;;;;;;;;;;;;;;;4966042;28;20674;-75
2023/08/28 00:08:27;;;;;;;;;;;;;;;;;;4951739;28;19918;-75
2023/08/28 00:10:53;;;;;;;;;;;;;;;;;;4966202;28;20474;-76
2023/08/28 00:13:21;;;;;;;;;;;;;;;;;;4953096;28;19926;-76
2023/08/28 00:15:46;;;;;;;;;;;;;;;;;;4970309;28;20464;-75
2023/08/28 00:18:12;;;;;;;;;;;;;;;;;;4951332;28;19971;-76
2023/08/28 00:20:37;;;;;;;;;;;;;;;;;;4967764;28;19977;-75
2023/08/28 00:23:05;;;;;;;;;;;;;;;;;;4966602;28;19949;-76
2023/08/28 00:25:33;;;;;;;;;;;;;;;;;;4966804;28;20003;-77
2023/08/28 00:28:03;;;;;;;;;;;;;;;;;;4987288;28;19944;-74
2023/08/28 00:30:31;;;;;;;;;;;;;;;;;;4984831;28;19940;-75
2023/08/28 00:32:56;;;;;;;;;;;;;;;;;;4970421;28;21309;-76
2023/08/28 00:35:24;;;;;;;;;;;;;;;;;;4952571;28;20803;-76
2023/08/28 00:37:49;;;;;;;;;;;;;;;;;;4953454;28;19929;-76
2023/08/28 00:40:16;;;;;;;;;;;;;;;;;;4986381;28;19928;-77
2023/08/28 00:42:41;;;;;;;;;;;;;;;;;;4948074;28;19917;-76
2023/08/28 00:45:11;;;;;;;;;;;;;;;;;;4987018;28;20156;-76
2023/08/28 00:47:38;;;;;;;;;;;;;;;;;;4966900;28;19917;-77
2023/08/28 00:50:04;;;;;;;;;;;;;;;;;;4953530;28;19991;-77
2023/08/28 00:52:32;;;;;;;;;;;;;;;;;;4986610;28;19961;-75
2023/08/28 00:54:57;;;;;;;;;;;;;;;;;;4952210;28;20028;-76
2023/08/28 00:57:25;;;;;;;;;;;;;;;;;;4954491;28;20056;-76
2023/08/28 00:59:50;;;;;;;;;;;;;;;;;;4949270;28;20403;-76
2023/08/28 01:02:15;;;;;;;;;;;;;;;;;;4984379;28;21264;-76
2023/08/28 01:04:43;;;;;;;;;;;;;;;;;;4953089;28;19975;-77
2023/08/28 01:07:09;;;;;;;;;;;;;;;;;;4985865;28;20084;-76
2023/08/28 01:09:34;;;;;;;;;;;;;;;;;;4966250;28;19928;-76
2023/08/28 01:12:02;;;;;;;;;;;;;;;;;;4969199;28;19949;-77
2023/08/28 01:14:27;;;;;;;;;;;;;;;;;;4969006;28;19931;-76
2023/08/28 01:16:52;;;;;;;;;;;;;;;;;;4986735;28;20003;-77
2023/08/28 01:19:18;;;;;;;;;;;;;;;;;;4969681;28;20399;-76
2023/08/28 01:21:43;;;;;;;;;;;;;;;;;;4970945;28;19957;-76
2023/08/28 01:24:11;;;;;;;;;;;;;;;;;;4949868;28;19964;-76
2023/08/28 01:26:36;;;;;;;;;;;;;;;;;;4970271;28;19918;-75
2023/08/28 01:29:06;;;;;;;;;;;;;;;;;;4953768;28;19930;-76
2023/08/28 01:31:35;;;;;;;;;;;;;;;;;;4988570;28;20971;-75
2023/08/28 01:34:05;;;;;;;;;;;;;;;;;;4982171;28;19929;-74
2023/08/28 01:36:30;;;;;;;;;;;;;;;;;;4950768;28;19976;-75
2023/08/28 01:38:56;;;;;;;;;;;;;;;;;;4966824;28;19989;-75
2023/08/28 01:41:21;;;;;;;;;;;;;;;;;;4983297;28;21400;-75
2023/08/28 01:43:46;;;;;;;;;;;;;;;;;;4986831;28;20872;-75
2023/08/28 01:46:11;;;;;;;;;;;;;;;;;;4965920;28;19921;-75
2023/08/28 01:48:37;;;;;;;;;;;;;;;;;;4969885;28;20462;-74
2023/08/28 01:51:02;;;;;;;;;;;;;;;;;;4969406;28;21843;-75
2023/08/28 01:53:31;;;;;;;;;;;;;;;;;;4969108;28;20019;-75
2023/08/28 01:55:59;;;;;;;;;;;;;;;;;;4986073;28;19921;-75
2023/08/28 01:58:24;;;;;;;;;;;;;;;;;;4967164;28;20373;-75
2023/08/28 02:00:52;;;;;;;;;;;;;;;;;;4966780;28;19922;-75
2023/08/28 02:03:22;;;;;;;;;;;;;;;;;;4988890;28;19929;-74
2023/08/28 02:05:51;;;;;;;;;;;;;;;;;;4970724;28;19920;-76
2023/08/28 02:08:18;;;;;;;;;;;;;;;;;;4968815;28;19917;-75
2023/08/28 02:10:46;;;;;;;;;;;;;;;;;;4972870;28;20488;-75
2023/08/28 02:13:11;;;;;;;;;;;;;;;;;;4956221;28;20356;-76
2023/08/28 02:15:37;;;;;;;;;;;;;;;;;;4954653;28;19926;-76
2023/08/28 02:18:05;;;;;;;;;;;;;;;;;;4955720;28;19927;-76
2023/08/28 02:20:32;;;;;;;;;;;;;;;;;;4986380;28;19917;-76
2023/08/28 02:22:58;;;;;;;;;;;;;;;;;;4956489;28;19926;-75
2023/08/28 02:25:23;;;;;;;;;;;;;;;;;;4957536;28;19917;-75
2023/08/28 02:27:51;;;;;;;;;;;;;;;;;;4970168;28;19929;-75
2023/08/28 02:30:18;;;;;;;;;;;;;;;;;;4953934;28;19921;-76
2023/08/28 02:32:46;;;;;;;;;;;;;;;;;;4954490;28;19937;-76
2023/08/28 02:35:12;;;;;;;;;;;;;;;;;;4967105;28;19917;-75
2023/08/28 02:37:42;;;;;;;;;;;;;;;;;;4989795;28;20643;-75
2023/08/28 02:40:10;;;;;;;;;;;;;;;;;;4970652;28;19921;-75
2023/08/28 02:42:35;;;;;;;;;;;;;;;;;;4954932;28;19924;-75
2023/08/28 02:45:00;;;;;;;;;;;;;;;;;;4988416;28;19924;-75
2023/08/28 02:47:31;;;;;;;;;;;;;;;;;;4968372;28;19921;-74
2023/08/28 02:49:56;;;;;;;;;;;;;;;;;;4974083;28;19921;-75
2023/08/28 02:52:22;;;;;;;;;;;;;;;;;;4985214;28;20319;-75
2023/08/28 02:54:47;;;;;;;;;;;;;;;;;;4988216;28;19944;-75
2023/08/28 02:57:15;;;;;;;;;;;;;;;;;;4986138;28;19918;-76
2023/08/28 02:59:45;;;;;;;;;;;;;;;;;;4971263;28;19917;-75
2023/08/28 03:02:11;;;;;;;;;;;;;;;;;;4986698;28;20810;-75
2023/08/28 03:04:36;;;;;;;;;;;;;;;;;;4990627;28;19973;-76
2023/08/28 03:07:01;;;;;;;;;;;;;;;;;;4966695;28;19924;-75
2023/08/28 03:09:29;;;;;;;;;;;;;;;;;;4972907;28;20610;-75
2023/08/28 03:11:56;;;;;;;;;;;;;;;;;;4988870;28;20082;-76
2023/08/28 03:14:22;;;;;;;;;;;;;;;;;;4955049;28;20408;-76
2023/08/28 03:16:49;;;;;;;;;;;;;;;;;;4970913;28;20327;-76
2023/08/28 03:19:15;;;;;;;;;;;;;;;;;;4969903;28;19925;-76
2023/08/28 03:21:45;;;;;;;;;;;;;;;;;;4972205;28;19976;-76
2023/08/28 03:24:13;;;;;;;;;;;;;;;;;;4970322;28;20020;-76
2023/08/28 03:26:38;;;;;;;;;;;;;;;;;;4970386;28;21909;-75
2023/08/28 03:29:07;;;;;;;;;;;;;;;;;;4970779;28;19948;-76
2023/08/28 03:31:34;;;;;;;;;;;;;;;;;;4956608;28;19926;-76
2023/08/28 03:34:00;;;;;;;;;;;;;;;;;;4985349;28;20007;-76
2023/08/28 03:36:25;;;;;;;;;;;;;;;;;;4972179;28;19929;-76
2023/08/28 03:42:10;;;;;;;;;;;;;;;;;;4990414;28;20371;-76
2023/08/28 03:44:35;;;;;;;;;;;;;;;;;;4954584;28;19918;-76
2023/08/28 03:47:01;;;;;;;;;;;;;;;;;;4988122;28;19922;-75
2023/08/28 03:49:29;;;;;;;;;;;;;;;;;;4971720;28;19922;-75
2023/08/28 03:52:00;;;;;;;;;;;;;;;;;;4974881;28;20032;-74
2023/08/28 03:54:25;;;;;;;;;;;;;;;;;;4977354;28;19925;-75
2023/08/28 03:56:50;;;;;;;;;;;;;;;;;;4958181;28;20405;-76
2023/08/28 03:59:18;;;;;;;;;;;;;;;;;;4972976;28;19937;-76
2023/08/28 04:01:46;;;;;;;;;;;;;;;;;;4972349;28;19922;-77
2023/08/28 04:04:17;;;;;;;;;;;;;;;;;;4955372;28;20056;-77
2023/08/28 04:06:42;;;;;;;;;;;;;;;;;;4954222;28;19922;-76
2023/08/28 04:09:07;;;;;;;;;;;;;;;;;;4990287;28;19921;-76
2023/08/28 04:11:33;;;;;;;;;;;;;;;;;;4990224;28;19969;-76
2023/08/28 04:13:58;;;;;;;;;;;;;;;;;;4968616;28;20626;-76
2023/08/28 04:16:23;;;;;;;;;;;;;;;;;;4951948;28;20464;-76
2023/08/28 04:18:49;;;;;;;;;;;;;;;;;;4966084;28;19922;-75
2023/08/28 04:21:16;;;;;;;;;;;;;;;;;;4967032;28;20037;-76
2023/08/28 04:23:44;;;;;;;;;;;;;;;;;;4965913;28;19922;-76
2023/08/28 04:26:09;;;;;;;;;;;;;;;;;;4951736;28;19921;-75
2023/08/28 04:28:37;;;;;;;;;;;;;;;;;;4968860;28;22049;-76
2023/08/28 04:31:05;;;;;;;;;;;;;;;;;;4966892;28;19921;-77
2023/08/28 04:33:33;;;;;;;;;;;;;;;;;;4964103;28;20266;-78
2023/08/28 04:35:59;;;;;;;;;;;;;;;;;;4969514;28;19944;-77
2023/08/28 04:38:24;;;;;;;;;;;;;;;;;;4965714;28;19918;-77
2023/08/28 04:40:50;;;;;;;;;;;;;;;;;;4966676;28;19918;-77
2023/08/28 04:43:15;;;;;;;;;;;;;;;;;;4971788;28;20653;-78
2023/08/28 04:45:40;;;;;;;;;;;;;;;;;;4968401;28;19960;-77
2023/08/28 04:48:08;;;;;;;;;;;;;;;;;;4955807;28;19999;-77
2023/08/28 04:50:33;;;;;;;;;;;;;;;;;;4967891;28;20390;-78
2023/08/28 04:52:59;;;;;;;;;;;;;;;;;;4968935;28;19926;-78
2023/08/28 04:55:27;;;;;;;;;;;;;;;;;;4964579;28;19922;-77
2023/08/28 04:57:56;;;;;;;;;;;;;;;;;;4951573;28;19933;-77
2023/08/28 05:00:21;;;;;;;;;;;;;;;;;;4953560;28;19964;-78
2023/08/28 05:02:47;;;;;;;;;;;;;;;;;;4964545;28;19918;-79
2023/08/28 05:05:14;;;;;;;;;;;;;;;;;;4972235;28;19996;-78
2023/08/28 05:07:42;;;;;;;;;;;;;;;;;;4950711;28;19960;-78
2023/08/28 05:10:07;;;;;;;;;;;;;;;;;;4952582;28;19961;-77
2023/08/28 05:12:38;;;;;;;;;;;;;;;;;;4963725;28;20008;-78
2023/08/28 05:15:03;;;;;;;;;;;;;;;;;;4982783;28;19975;-77
2023/08/28 05:17:29;;;;;;;;;;;;;;;;;;4970131;28;20419;-77
2023/08/28 05:19:54;;;;;;;;;;;;;;;;;;4968196;28;20052;-76
2023/08/28 05:22:22;;;;;;;;;;;;;;;;;;4966891;28;21660;-76
2023/08/28 05:24:47;;;;;;;;;;;;;;;;;;4967623;28;19941;-77
2023/08/28 05:27:13;;;;;;;;;;;;;;;;;;4966117;28;19921;-76
2023/08/28 05:29:38;;;;;;;;;;;;;;;;;;4965165;28;20315;-76
2023/08/28 05:32:04;;;;;;;;;;;;;;;;;;4970989;28;19937;-77
2023/08/28 05:34:29;;;;;;;;;;;;;;;;;;4970159;28;19937;-76
2023/08/28 05:36:54;;;;;;;;;;;;;;;;;;4974178;28;20056;-77
2023/08/28 05:39:20;;;;;;;;;;;;;;;;;;4992776;28;20842;-77
2023/08/28 05:41:45;;;;;;;;;;;;;;;;;;4969170;28;20400;-77
2023/08/28 05:44:10;;;;;;;;;;;;;;;;;;4987871;28;20060;-77
2023/08/28 05:46:35;;;;;;;;;;;;;;;;;;4969555;28;20373;-77
2023/08/28 05:49:01;;;;;;;;;;;;;;;;;;4969708;28;19929;-77
2023/08/28 05:51:26;;;;;;;;;;;;;;;;;;4956169;28;19968;-77
2023/08/28 05:53:51;;;;;;;;;;;;;;;;;;4987958;28;20029;-72
2023/08/28 05:56:17;;;;;;;;;;;;;;;;;;4972854;28;19933;-73
2023/08/28 05:58:43;;;;;;;;;;;;;;;;;;4955826;28;20332;-73
2023/08/28 06:01:09;;;;;;;;;;;;;;;;;;4992103;28;19920;-72
2023/08/28 06:03:34;;;;;;;;;;;;;;;;;;4968860;28;19917;-72
2023/08/28 06:05:59;;;;;;;;;;;;;;;;;;4991303;28;20675;-71
2023/08/28 06:08:25;;;;;;;;;;;;;;;;;;4972201;28;20500;-71
2023/08/28 06:10:50;;;;;;;;;;;;;;;;;;4989184;28;19940;-73
2023/08/28 06:13:16;;;;;;;;;;;;;;;;;;4955337;28;20376;-71
2023/08/28 06:15:41;;;;;;;;;;;;;;;;;;4989274;28;19925;-70
2023/08/28 06:18:07;;;;;;;;;;;;;;;;;;4956866;28;19921;-70
2023/08/28 06:20:33;;;;;;;;;;;;;;;;;;4956629;28;20589;-70
2023/08/28 06:22:59;;;;;;;;;;;;;;;;;;4990117;28;19921;-70
2023/08/28 06:25:25;;;;;;;;;;;;;;;;;;4990610;28;21833;-71
2023/08/28 06:27:51;;;;;;;;;;;;;;;;;;4972866;28;19925;-70
2023/08/28 06:30:16;;;;;;;;;;;;;;;;;;4972194;28;19921;-71
2023/08/28 06:32:44;;;;;;;;;;;;;;;;;;4988477;28;19964;-71
2023/08/28 06:35:10;;;;;;;;;;;;;;;;;;4970255;28;19922;-71
2023/08/28 06:37:35;;;;;;;;;;;;;;;;;;4970943;28;20663;-72
2023/08/28 06:40:04;;;;;;;;;;;;;;;;;;4988010;28;19925;-72
2023/08/28 06:42:30;;;;;;;;;;;;;;;;;;4971841;28;19933;-71
2023/08/28 06:44:55;;;;;;;;;;;;;;;;;;4972564;28;20031;-72
2023/08/28 06:47:21;;;;;;;;;;;;;;;;;;4971280;28;19928;-71
2023/08/28 06:49:46;;;;;;;;;;;;;;;;;;4991873;28;20799;-72
2023/08/28 06:52:12;;;;;;;;;;;;;;;;;;4971046;28;19921;-72
2023/08/28 06:54:41;;;;;;;;;;;;;;;;;;4954327;28;19921;-71
2023/08/28 06:57:08;;;;;;;;;;;;;;;;;;4989494;28;20439;-71
2023/08/28 06:59:34;;;;;;;;;;;;;;;;;;4971554;28;19961;-72
2023/08/28 07:01:59;;;;;;;;;;;;;;;;;;4991698;28;20408;-73
2023/08/28 07:04:27;;;;;;;;;;;;;;;;;;4989642;28;20064;-72
2023/08/28 07:06:53;;;;;;;;;;;;;;;;;;4972572;28;19925;-75
2023/08/28 07:09:19;;;;;;;;;;;;;;;;;;4969308;28;20032;-72
2023/08/28 07:11:45;;;;;;;;;;;;;;;;;;4968726;28;19936;-72
2023/08/28 07:14:10;;;;;;;;;;;;;;;;;;4972034;28;19925;-72
2023/08/28 07:16:36;;;;;;;;;;;;;;;;;;4972351;28;19921;-72
2023/08/28 07:19:01;;;;;;;;;;;;;;;;;;4972937;28;20078;-73
2023/08/28 07:21:27;;;;;;;;;;;;;;;;;;4972260;28;19979;-72
2023/08/28 07:23:52;;;;;;;;;;;;;;;;;;4989590;28;19945;-74
2023/08/28 07:26:20;;;;;;;;;;;;;;;;;;4971553;28;20464;-73
2023/08/28 07:28:48;;;;;;;;;;;;;;;;;;4986490;28;20044;-72
2023/08/28 07:31:14;;;;;;;;;;;;;;;;;;4957321;28;19918;-77
2023/08/28 07:33:40;;;;;;;;;;;;;;;;;;4956576;28;19953;-77
2023/08/28 07:36:05;;;;;;;;;;;;;;;;;;4986209;28;20642;-74
2023/08/28 07:38:31;;;;;;;;;;;;;;;;;;4988350;28;19928;-74
2023/08/28 07:40:57;;;;;;;;;;;;;;;;;;4972384;28;19921;-79
2023/08/28 07:43:25;;;;;;;;;;;;;;;;;;4970526;28;19956;-73
2023/08/28 07:45:50;;;;;;;;;;;;;;;;;;4988752;28;19979;-77
2023/08/28 07:48:18;;;;;;;;;;;;;;;;;;4971955;28;20316;-73
2023/08/28 07:53:45;;;;;;;;;;;;;;;;;;4970142;28;19941;-74
2023/08/28 07:56:10;;;;;;;;;;;;;;;;;;4967016;28;19926;-75
2023/08/28 07:58:38;;;;;;;;;;;;;;;;;;4969578;28;19924;-73
2023/08/28 08:01:07;;;;;;;;;;;;;;;;;;4987603;28;19918;-74
2023/08/28 08:06:26;;;;;;;;;;;;;;;;;;4988330;28;19921;-73
2023/08/28 08:08:52;;;;;;;;;;;;;;;;;;4987196;28;20039;-71
2023/08/28 08:11:20;;;;;;;;;;;;;;;;;;4971788;28;20006;-71
2023/08/28 08:13:55;;;;;;;;;;;;;;;;;;4982887;28;19926;-71
2023/08/28 08:16:23;;;;;;;;;;;;;;;;;;4967753;28;19926;-71
2023/08/28 08:18:51;;;;;;;;;;;;;;;;;;4950379;28;19972;-72
2023/08/28 08:21:20;;;;;;;;;;;;;;;;;;4966393;28;20040;-72
2023/08/28 08:23:51;;;;;;;;;;;;;;;;;;4966314;28;20325;-72
2023/08/28 08:26:16;;;;;;;;;;;;;;;;;;4966429;28;19988;-72
2023/08/28 08:28:41;;;;;;;;;;;;;;;;;;4967554;28;20332;-71
2023/08/28 08:31:12;;;;;;;;;;;;;;;;;;4949633;28;20020;-71
2023/08/28 08:33:39;;;;;;;;;;;;;;;;;;4967390;28;19941;-72
2023/08/28 08:36:05;;;;;;;;;;;;;;;;;;4967367;28;20565;-71
2023/08/28 08:38:33;;;;;;;;;;;;;;;;;;4968360;28;20239;-72
2023/08/28 08:40:58;;;;;;;;;;;;;;;;;;4951141;28;19988;-72
2023/08/28 08:46:46;;;;;;;;;;;;;;;;;;4969809;28;19952;-72
2023/08/28 08:49:15;;;;;;;;;;;;;;;;;;4967388;28;19929;-74
2023/08/28 08:51:40;;;;;;;;;;;;;;;;;;4967248;28;19921;-72
2023/08/28 08:54:09;;;;;;;;;;;;;;;;;;4948636;28;19926;-72
2023/08/28 08:56:34;;;;;;;;;;;;;;;;;;4950857;28;20433;-72
2023/08/28 08:59:00;;;;;;;;;;;;;;;;;;4966407;28;19968;-73
2023/08/28 09:01:25;;;;;;;;;;;;;;;;;;4965687;28;20028;-72
2023/08/28 09:03:53;;;;;;;;;;;;;;;;;;4968392;28;19945;-72
2023/08/28 09:06:25;;;;;;;;;;;;;;;;;;4979077;28;19929;-72
2023/08/28 09:08:50;;;;;;;;;;;;;;;;;;4966126;28;20131;-72
2023/08/28 09:11:15;;;;;;;;;;;;;;;;;;4949068;28;19921;-71
2023/08/28 09:13:44;;;;;;;;;;;;;;;;;;4952099;28;19983;-71
2023/08/28 09:16:09;;;;;;;;;;;;;;;;;;4964009;28;20394;-71
2023/08/28 09:18:34;;;;;;;;;;;;;;;;;;4949403;28;19965;-72
2023/08/28 09:21:02;;;;;;;;;;;;;;;;;;4963835;28;19951;-72
2023/08/28 09:26:44;;;;;;;;;;;;;;;;;;4966368;28;20131;-73
2023/08/28 09:29:10;;;;;;;;;;;;;;;;;;4968341;28;20987;-73
2023/08/28 09:31:42;;;;;;;;;;;;;;;;;;4967400;28;19918;-73
2023/08/28 09:34:10;;;;;;;;;;;;;;;;;;4965665;28;19922;-72
2023/08/28 09:36:36;;;;;;;;;;;;;;;;;;4965945;28;19976;-71
2023/08/28 09:42:20;;;;;;;;;;;;;;;;;;4967988;28;19952;-70
2023/08/28 09:44:46;;;;;;;;;;;;;;;;;;4966909;28;19921;-70
2023/08/28 09:50:36;;;;;;;;;;;;;;;;;;4966813;28;19948;-69
2023/08/28 09:53:02;;;;;;;;;;;;;;;;;;4965830;28;21714;-70
2023/08/28 09:55:27;;;;;;;;;;;;;;;;;;4966166;28;20392;-69
2023/08/28 09:57:53;;;;;;;;;;;;;;;;;;4949045;28;21880;-70
2023/08/28 10:00:21;;;;;;;;;;;;;;;;;;4965249;28;19918;-70
2023/08/28 10:02:51;;;;;;;;;;;;;;;;;;4966446;28;20292;-70
2023/08/28 10:05:17;;;;;;;;;;;;;;;;;;4966506;28;19918;-69
2023/08/28 10:07:45;;;;;;;;;;;;;;;;;;4965731;28;19941;-69
2023/08/28 10:10:14;;;;;;;;;;;;;;;;;;4950530;28;20365;-70
2023/08/28 10:12:40;;;;;;;;;;;;;;;;;;4963946;28;20025;-70
2023/08/28 10:15:08;;;;;;;;;;;;;;;;;;4945238;28;20362;-69
2023/08/28 10:17:33;;;;;;;;;;;;;;;;;;4965787;28;19929;-70
2023/08/28 10:20:01;;;;;;;;;;;;;;;;;;4949701;28;19917;-70
2023/08/28 10:22:27;;;;;;;;;;;;;;;;;;4965161;28;19918;-69
2023/08/28 10:24:52;;;;;;;;;;;;;;;;;;4952757;28;20766;-71
2023/08/28 10:27:17;;;;;;;;;;;;;;;;;;4952335;28;19926;-70
2023/08/28 10:29:43;;;;;;;;;;;;;;;;;;4967612;28;19932;-71
2023/08/28 10:32:13;;;;;;;;;;;;;;;;;;4953397;28;19957;-71
2023/08/28 10:34:42;;;;;;;;;;;;;;;;;;4968244;28;19918;-70
2023/08/28 10:37:10;;;;;;;;;;;;;;;;;;4953021;28;20764;-70
2023/08/28 10:39:35;;;;;;;;;;;;;;;;;;4950207;28;19922;-70
2023/08/28 10:42:00;;;;;;;;;;;;;;;;;;4983849;28;21690;-70
2023/08/28 10:44:26;;;;;;;;;;;;;;;;;;4968365;28;20523;-70
2023/08/28 10:46:51;;;;;;;;;;;;;;;;;;4967309;28;19924;-70
2023/08/28 10:49:17;;;;;;;;;;;;;;;;;;4967025;28;19941;-70
2023/08/28 10:51:44;;;;;;;;;;;;;;;;;;4968190;28;19940;-70
2023/08/28 10:54:12;;;;;;;;;;;;;;;;;;4967202;28;19929;-70
2023/08/28 10:56:38;;;;;;;;;;;;;;;;;;4966397;28;19922;-70
2023/08/28 10:59:04;;;;;;;;;;;;;;;;;;4966258;28;20024;-70
2023/08/28 11:04:48;;;;;;;;;;;;;;;;;;4969360;28;19956;-69
2023/08/28 11:07:27;;;;;;;;;;;;;;;;;;4968552;28;19968;-69
2023/08/28 11:09:53;;;;;;;;;;;;;;;;;;4967364;28;19922;-70
2023/08/28 11:12:18;;;;;;;;;;;;;;;;;;4953124;28;20357;-70
2023/08/28 11:14:46;;;;;;;;;;;;;;;;;;4952205;28;21725;-70
2023/08/28 11:17:11;;;;;;;;;;;;;;;;;;4970776;28;19928;-72
2023/08/28 11:19:37;;;;;;;;;;;;;;;;;;4970507;28;19922;-71
2023/08/28 11:22:03;;;;;;;;;;;;;;;;;;4953245;28;19926;-72
2023/08/28 11:24:28;;;;;;;;;;;;;;;;;;4952255;28;19926;-76
2023/08/28 11:26:53;;;;;;;;;;;;;;;;;;4950616;28;20197;-74
2023/08/28 11:29:30;;;;;;;;;;;;;;;;;;4951721;28;19961;-74
2023/08/28 11:31:55;;;;;;;;;;;;;;;;;;4949155;28;20016;-72
2023/08/28 11:34:20;;;;;;;;;;;;;;;;;;4969956;28;19928;-75
2023/08/28 11:36:46;;;;;;;;;;;;;;;;;;4969272;28;19949;-75
2023/08/28 11:39:11;;;;;;;;;;;;;;;;;;4970496;28;19929;-75
2023/08/28 11:41:39;;;;;;;;;;;;;;;;;;4952081;28;19921;-75
2023/08/28 11:44:20;;;;;;;;;;;;;;;;;;4970233;28;19926;-75
2023/08/28 11:46:46;;;;;;;;;;;;;;;;;;4967549;28;20854;-75
2023/08/28 11:49:11;;;;;;;;;;;;;;;;;;4968905;28;19918;-74
2023/08/28 11:51:40;;;;;;;;;;;;;;;;;;4953165;28;19929;-75
2023/08/28 11:54:06;;;;;;;;;;;;;;;;;;4968769;28;20384;-75
2023/08/28 11:56:31;;;;;;;;;;;;;;;;;;4951680;28;19921;-75
2023/08/28 11:58:56;;;;;;;;;;;;;;;;;;4967075;28;20539;-77
2023/08/28 12:01:22;;;;;;;;;;;;;;;;;;4950120;28;20968;-73
2023/08/28 12:03:50;;;;;;;;;;;;;;;;;;4967416;28;19921;-72
2023/08/28 12:06:20;;;;;;;;;;;;;;;;;;4984120;28;19924;-73
2023/08/28 12:08:45;;;;;;;;;;;;;;;;;;4967879;28;19917;-73
2023/08/28 12:11:12;;;;;;;;;;;;;;;;;;4950058;28;19929;-72
2023/08/28 12:13:39;;;;;;;;;;;;;;;;;;4969129;28;19922;-71
2023/08/28 12:16:05;;;;;;;;;;;;;;;;;;4985169;28;19925;-71
2023/08/28 12:18:35;;;;;;;;;;;;;;;;;;4967346;28;20880;-71
2023/08/28 12:21:01;;;;;;;;;;;;;;;;;;4988498;28;19928;-71
2023/08/28 12:23:26;;;;;;;;;;;;;;;;;;4967969;28;20383;-71
2023/08/28 12:25:51;;;;;;;;;;;;;;;;;;4984866;28;19924;-71
2023/08/28 12:28:22;;;;;;;;;;;;;;;;;;4969504;28;19931;-71
2023/08/28 12:30:47;;;;;;;;;;;;;;;;;;4970429;28;19968;-71
2023/08/28 12:33:12;;;;;;;;;;;;;;;;;;4969477;28;19921;-70
2023/08/28 12:35:38;;;;;;;;;;;;;;;;;;4987742;28;19925;-70
2023/08/28 12:38:07;;;;;;;;;;;;;;;;;;4968245;28;20499;-71
2023/08/28 12:40:35;;;;;;;;;;;;;;;;;;4987239;28;19922;-71
2023/08/28 12:43:03;;;;;;;;;;;;;;;;;;4951438;28;20019;-71
2023/08/28 12:45:28;;;;;;;;;;;;;;;;;;4971181;28;19921;-71
2023/08/28 12:47:56;;;;;;;;;;;;;;;;;;4988001;28;20413;-71
2023/08/28 12:50:24;;;;;;;;;;;;;;;;;;4969735;28;19921;-71
2023/08/28 12:52:49;;;;;;;;;;;;;;;;;;4970173;28;19963;-71
2023/08/28 12:55:15;;;;;;;;;;;;;;;;;;4971458;28;19925;-70
2023/08/28 12:57:43;;;;;;;;;;;;;;;;;;4971118;28;19927;-70
2023/08/28 13:00:13;;;;;;;;;;;;;;;;;;4970976;28;19922;-70
2023/08/28 13:02:41;;;;;;;;;;;;;;;;;;4987293;28;19931;-70
2023/08/28 13:05:09;;;;;;;;;;;;;;;;;;4989069;28;20003;-69
2023/08/28 13:07:39;;;;;;;;;;;;;;;;;;4953602;28;20659;-70
2023/08/28 13:10:14;;;;;;;;;;;;;;;;;;4953520;28;20423;-68
2023/08/28 13:12:44;;;;;;;;;;;;;;;;;;4987265;28;19922;-69
2023/08/28 13:15:10;;;;;;;;;;;;;;;;;;4954078;28;19926;-69
2023/08/28 13:17:35;;;;;;;;;;;;;;;;;;4966415;28;19917;-69
2023/08/28 13:20:04;;;;;;;;;;;;;;;;;;4970459;28;20558;-68
2023/08/28 13:22:30;;;;;;;;;;;;;;;;;;4951978;28;19922;-69
2023/08/28 13:24:55;;;;;;;;;;;;;;;;;;4953500;28;20003;-68
2023/08/28 13:30:38;;;;;;;;;;;;;;;;;;4989203;28;20028;-69
2023/08/28 13:33:08;;;;;;;;;;;;;;;;;;4987787;28;19965;-70
2023/08/28 13:38:21;;;;;;;;;;;;;;;;;;4984280;28;20005;-69
2023/08/28 13:40:46;;;;;;;;;;;;;;;;;;4954665;28;20497;-71
2023/08/28 13:43:15;;;;;;;;;;;;;;;;;;4970219;28;20429;-69
2023/08/28 13:45:42;;;;;;;;;;;;;;;;;;4969006;28;20385;-68
2023/08/28 13:48:08;;;;;;;;;;;;;;;;;;4988275;28;19926;-69
2023/08/28 13:50:37;;;;;;;;;;;;;;;;;;4985703;28;19917;-67
2023/08/28 13:56:28;;;;;;;;;;;;;;;;;;4988937;28;19924;-67
2023/08/28 13:58:54;;;;;;;;;;;;;;;;;;4991882;28;19921;-68
2023/08/28 14:01:19;;;;;;;;;;;;;;;;;;4956215;28;19917;-68
2023/08/28 14:06:52;;;;;;;;;;;;;;;;;;4990221;28;20472;-69
2023/08/28 14:09:26;;;;;;;;;;;;;;;;;;4971741;28;19922;-68
2023/08/28 14:11:54;;;;;;;;;;;;;;;;;;4955656;28;19929;-68
2023/08/28 14:14:20;;;;;;;;;;;;;;;;;;4987273;28;19918;-69
2023/08/28 14:20:05;;;;;;;;;;;;;;;;;;4990788;28;20003;-70
2023/08/28 14:22:33;;;;;;;;;;;;;;;;;;4972495;28;20003;-68
2023/08/28 14:25:03;;;;;;;;;;;;;;;;;;4973090;28;20035;-68
2023/08/28 14:27:28;;;;;;;;;;;;;;;;;;4957390;28;19922;-67
2023/08/28 14:29:59;;;;;;;;;;;;;;;;;;4972061;28;19928;-68
2023/08/28 14:32:25;;;;;;;;;;;;;;;;;;4988959;28;19921;-68
2023/08/28 14:34:53;;;;;;;;;;;;;;;;;;4957352;28;19928;-68
2023/08/28 14:37:21;;;;;;;;;;;;;;;;;;4969580;28;19965;-68
2023/08/28 14:46:21;;;;;;;;;;;;;;;;;;4988877;28;20280;-68
2023/08/28 14:48:49;;;;;;;;;;;;;;;;;;4989587;28;19925;-68
2023/08/28 14:51:14;;;;;;;;;;;;;;;;;;4972300;28;20060;-69
2023/08/28 14:53:45;;;;;;;;;;;;;;;;;;4972170;28;19961;-68
2023/08/28 14:56:10;;;;;;;;;;;;;;;;;;4971609;28;19925;-68
2023/08/28 14:58:36;;;;;;;;;;;;;;;;;;4990731;28;19972;-68
2023/08/28 15:01:05;;;;;;;;;;;;;;;;;;4988284;28;19937;-68
2023/08/28 15:03:33;;;;;;;;;;;;;;;;;;4971618;28;19922;-68
2023/08/28 15:05:59;;;;;;;;;;;;;;;;;;4971520;28;19922;-68
2023/08/28 15:08:24;;;;;;;;;;;;;;;;;;4969948;28;19932;-68
2023/08/28 15:10:50;;;;;;;;;;;;;;;;;;4971462;28;19937;-68
2023/08/28 15:13:20;;;;;;;;;;;;;;;;;;4955970;28;19926;-67
2023/08/28 15:15:48;;;;;;;;;;;;;;;;;;4953511;28;19921;-70
2023/08/28 15:18:13;;;;;;;;;;;;;;;;;;4969436;28;19926;-70
2023/08/28 15:20:41;;;;;;;;;;;;;;;;;;4964032;28;19929;-70
2023/08/28 15:23:07;;;;;;;;;;;;;;;;;;4969297;28;20016;-70
2023/08/28 15:25:32;;;;;;;;;;;;;;;;;;4968613;28;19962;-70
2023/08/28 15:27:58;;;;;;;;;;;;;;;;;;4965829;28;19921;-70
2023/08/28 15:30:23;;;;;;;;;;;;;;;;;;4963966;28;19921;-70
2023/08/28 15:32:48;;;;;;;;;;;;;;;;;;4949887;28;19917;-70
2023/08/28 15:35:16;;;;;;;;;;;;;;;;;;4968257;28;19921;-70
2023/08/28 15:37:44;;;;;;;;;;;;;;;;;;4965769;28;19921;-70
2023/08/28 15:40:10;;;;;;;;;;;;;;;;;;4968563;28;19928;-70
2023/08/28 15:42:35;;;;;;;;;;;;;;;;;;4980910;28;20623;-71
2023/08/28 15:45:01;;;;;;;;;;;;;;;;;;4964373;28;19926;-70
2023/08/28 15:47:26;;;;;;;;;;;;;;;;;;4960811;28;20422;-69
2023/08/28 15:49:51;;;;;;;;;;;;;;;;;;4945692;28;19941;-70
2023/08/28 15:52:17;;;;;;;;;;;;;;;;;;4964053;28;19928;-70
2023/08/28 15:54:42;;;;;;;;;;;;;;;;;;4967748;28;20929;-70
2023/08/28 15:57:08;;;;;;;;;;;;;;;;;;4950561;28;19983;-70
2023/08/28 15:59:34;;;;;;;;;;;;;;;;;;4984491;28;21914;-69
2023/08/28 16:02:01;;;;;;;;;;;;;;;;;;4986117;28;19922;-69
2023/08/28 16:04:30;;;;;;;;;;;;;;;;;;4985890;28;19921;-70
2023/08/28 16:06:58;;;;;;;;;;;;;;;;;;4951932;28;19960;-69
2023/08/28 16:09:24;;;;;;;;;;;;;;;;;;4965158;28;19924;-70
2023/08/28 16:11:49;;;;;;;;;;;;;;;;;;4983600;28;20849;-69
2023/08/28 16:14:14;;;;;;;;;;;;;;;;;;4966276;28;20012;-70
2023/08/28 16:16:40;;;;;;;;;;;;;;;;;;4961371;28;19948;-71
2023/08/28 16:19:06;;;;;;;;;;;;;;;;;;4949768;28;20404;-70
2023/08/28 16:21:35;;;;;;;;;;;;;;;;;;4958335;28;20339;-70
2023/08/28 16:24:00;;;;;;;;;;;;;;;;;;4979958;28;20357;-70
2023/08/28 16:26:26;;;;;;;;;;;;;;;;;;4964013;28;19922;-70
2023/08/28 16:28:52;;;;;;;;;;;;;;;;;;4951670;28;19984;-70
2023/08/28 16:31:18;;;;;;;;;;;;;;;;;;4962092;28;19917;-70
2023/08/28 16:33:44;;;;;;;;;;;;;;;;;;4963264;28;19929;-71
2023/08/28 16:36:09;;;;;;;;;;;;;;;;;;4947595;28;19960;-70
2023/08/28 16:38:38;;;;;;;;;;;;;;;;;;4966500;28;19918;-70
2023/08/28 16:41:06;;;;;;;;;;;;;;;;;;4965339;28;19929;-70
2023/08/28 16:43:31;;;;;;;;;;;;;;;;;;4957523;28;19969;-70
2023/08/28 16:45:56;;;;;;;;;;;;;;;;;;4966226;28;20600;-71
2023/08/28 16:48:24;;;;;;;;;;;;;;;;;;4960711;28;19977;-71
2023/08/28 16:50:49;;;;;;;;;;;;;;;;;;4950995;28;19921;-69
2023/08/28 16:53:17;;;;;;;;;;;;;;;;;;4961607;28;19922;-69
2023/08/28 16:55:42;;;;;;;;;;;;;;;;;;4947696;28;22033;-69
2023/08/28 16:58:07;;;;;;;;;;;;;;;;;;4964063;28;19934;-70
2023/08/28 17:00:36;;;;;;;;;;;;;;;;;;4947269;28;19922;-69
2023/08/28 17:03:01;;;;;;;;;;;;;;;;;;4960811;28;19932;-69
2023/08/28 17:05:32;;;;;;;;;;;;;;;;;;4960562;28;19922;-72
2023/08/28 17:08:00;;;;;;;;;;;;;;;;;;4947109;28;19921;-68
2023/08/28 17:10:28;;;;;;;;;;;;;;;;;;4965049;28;19949;-68
2023/08/28 17:12:56;;;;;;;;;;;;;;;;;;4965194;28;19949;-68
2023/08/28 17:15:25;;;;;;;;;;;;;;;;;;4963430;28;20099;-69
2023/08/28 17:17:50;;;;;;;;;;;;;;;;;;4962376;28;20036;-69
2023/08/28 17:20:15;;;;;;;;;;;;;;;;;;4965125;28;20396;-70
2023/08/28 17:22:41;;;;;;;;;;;;;;;;;;4961857;28;20765;-69
2023/08/28 17:25:09;;;;;;;;;;;;;;;;;;4962443;28;19945;-69
2023/08/28 17:27:37;;;;;;;;;;;;;;;;;;4962371;28;20107;-69
2023/08/28 17:30:03;;;;;;;;;;;;;;;;;;4963826;28;20266;-69